Ana Sayfa
METAR-TAF:

METAR-TAF

Havaalanları :

La Palma Havalimanı

La Palma, İspanya

Enlem: 28-37N, Boylam: 017-45W, yükseklik: 29 m

Güncel hava durumu gözlemi

Rapor saat 03:00 UTC de 39 dakika önce yapıldı.
Rüzgar kuzey/kuzeydoğudan 13 kt, kuzey/kuzeybatı ve kuzeydoğu arasında değişken
Sıcaklık 18°C
Nem 68%
Basınç 1026 hPa
Görüş mesafesi 10 km veya daha fazla
2600 ft yükseklikte az bulutlu
3200 ft yükseklikte parçalı çok bulutlu
3900 ft yükseklikte çok bulutlu

METAR: GCLA 190300Z AUTO 02013KT 340V050 9999 FEW026 BKN032 OVC039 18/12 Q1026

Saat: 03:39 (03:39 UTC)

Tahmin

Rapor saat 02:00 UTC de 1 saat ve 39 dakika önce yapıldı.
Ayın 19'si saat 03 UTC'den ayın 20'si saat 03 UTC'ye kadar geçerli Tahmin
Rüzgar kuzeydan 11 kt
Görüş mesafesi 10 km veya daha fazla
2500 ft yükseklikte parçalı çok bulutlu

TAF: GCLA 190200Z 1903/2003 36011KT 9999 BKN025 TX20/1914Z TN17/1906Z

4.000'den fazla havaalanı için hava durumu gözlemleri ve tahminleri (METAR ve TAF raporları).

Kullanılabilir istasyonlar harita üzerinde sarı ve kırmızı noktalarla gösterilir.

İstasyonun adını görmek için fareyi noktanın üzerinde gezdirin.

Sonrasında hava gözlem ve tahminlerini görmek için tıklayın.

Haritayı değiştirmek için: yaklaştırmak için siyah artı işaretli yeşil düğmeye ve uzaklaştırmak için de eksi işaretli düğmeye hızla tıklayın; bitişik haritalar için yeşil okları kullanın.


METAR-TAF: